San Diego, California
Traffic Map
Current Weather Conditions
San Diego, California
Few Clouds
Few Clouds
58°
Feels Like: 58°
Wind Chill: 58° Ceiling: Unl
Heat Index: 58° Visibility: 10mi
Dew Point: 49° Wind: 0mph
Humidity: 72% Direction: ° ()
Pressure: 30.22in Gusts: 0mph
Raw Report DataKSAN 190651Z 00000KT 10SM FEW050 14/09 A3022 RMK AO2 SLP234 T01440094
Traffic Incident Summary
Active as of:
Severity:
Category:
InformationThere was an issue retrieving the traffic information for this location. Please try a different location or try again shortly.
Advertisements
Track Severe Weather on mobile